sensor_id;sensor_type;location;lat;lon;timestamp;P1;durP1;ratioP1;P2;durP2;ratioP2
78889;SDS011;68279;48.964;14.502;2023-03-01T00:01:25;22.65;;;13.50;;
78889;SDS011;68279;48.964;14.502;2023-03-01T00:03:55;32.95;;;13.90;;
78889;SDS011;68279;48.964;14.502;2023-03-01T00:06:22;23.38;;;14.40;;
78889;SDS011;68279;48.964;14.502;2023-03-01T00:08:48;28.42;;;16.20;;
78889;SDS011;68279;48.964;14.502;2023-03-01T00:11:15;29.27;;;15.85;;
78889;SDS011;68279;48.964;14.502;2023-03-01T00:13:51;36.13;;;16.40;;
78889;SDS011;68279;48.964;14.502;2023-03-01T00:16:19;25.52;;;15.68;;
78889;SDS011;68279;48.964;14.502;2023-03-01T00:18:48;32.58;;;17.98;;
78889;SDS011;68279;48.964;14.502;2023-03-01T00:21:13;31.58;;;17.05;;
78889;SDS011;68279;48.964;14.502;2023-03-01T00:23:39;30.10;;;17.73;;
78889;SDS011;68279;48.964;14.502;2023-03-01T00:26:06;30.27;;;16.75;;
78889;SDS011;68279;48.964;14.502;2023-03-01T00:28:33;32.88;;;18.10;;
78889;SDS011;68279;48.964;14.502;2023-03-01T00:31:06;30.42;;;16.17;;
78889;SDS011;68279;48.964;14.502;2023-03-01T00:33:39;26.25;;;15.90;;
78889;SDS011;68279;48.964;14.502;2023-03-01T00:36:05;29.92;;;16.30;;
78889;SDS011;68279;48.964;14.502;2023-03-01T00:38:34;34.30;;;18.65;;
78889;SDS011;68279;48.964;14.502;2023-03-01T00:41:04;34.08;;;16.70;;
78889;SDS011;68279;48.964;14.502;2023-03-01T00:43:35;30.60;;;16.52;;
78889;SDS011;68279;48.964;14.502;2023-03-01T00:46:04;27.40;;;15.40;;
78889;SDS011;68279;48.964;14.502;2023-03-01T00:48:32;21.00;;;13.10;;
78889;SDS011;68279;48.964;14.502;2023-03-01T00:51:03;27.15;;;14.45;;
78889;SDS011;68279;48.964;14.502;2023-03-01T00:53:32;27.90;;;15.80;;
78889;SDS011;68279;48.964;14.502;2023-03-01T00:55:58;29.75;;;14.63;;
78889;SDS011;68279;48.964;14.502;2023-03-01T00:58:24;26.98;;;15.50;;
78889;SDS011;68279;48.964;14.502;2023-03-01T01:00:49;28.60;;;15.38;;
78889;SDS011;68279;48.964;14.502;2023-03-01T01:03:15;29.73;;;15.15;;
78889;SDS011;68279;48.964;14.502;2023-03-01T01:05:41;27.60;;;13.48;;
78889;SDS011;68279;48.964;14.502;2023-03-01T01:08:06;28.10;;;14.15;;
78889;SDS011;68279;48.964;14.502;2023-03-01T01:10:33;29.92;;;14.15;;
78889;SDS011;68279;48.964;14.502;2023-03-01T01:12:59;26.30;;;13.85;;
78889;SDS011;68279;48.964;14.502;2023-03-01T01:15:25;28.10;;;14.07;;
78889;SDS011;68279;48.964;14.502;2023-03-01T01:17:51;30.00;;;14.30;;
78889;SDS011;68279;48.964;14.502;2023-03-01T01:20:17;27.75;;;16.00;;
78889;SDS011;68279;48.964;14.502;2023-03-01T01:22:43;26.70;;;14.45;;
78889;SDS011;68279;48.964;14.502;2023-03-01T01:25:08;24.45;;;14.68;;
78889;SDS011;68279;48.964;14.502;2023-03-01T01:27:34;23.58;;;13.88;;
78889;SDS011;68279;48.964;14.502;2023-03-01T01:30:00;22.50;;;13.55;;
78889;SDS011;68279;48.964;14.502;2023-03-01T01:32:25;20.50;;;12.98;;
78889;SDS011;68279;48.964;14.502;2023-03-01T01:34:51;23.73;;;12.55;;
78889;SDS011;68279;48.964;14.502;2023-03-01T01:37:16;24.90;;;12.02;;
78889;SDS011;68279;48.964;14.502;2023-03-01T01:39:42;26.58;;;13.95;;
78889;SDS011;68279;48.964;14.502;2023-03-01T01:42:13;22.85;;;13.73;;
78889;SDS011;68279;48.964;14.502;2023-03-01T01:44:42;23.25;;;12.38;;
78889;SDS011;68279;48.964;14.502;2023-03-01T01:47:13;21.80;;;11.88;;
78889;SDS011;68279;48.964;14.502;2023-03-01T01:49:43;22.27;;;12.82;;
78889;SDS011;68279;48.964;14.502;2023-03-01T01:52:22;26.92;;;13.30;;
78889;SDS011;68279;48.964;14.502;2023-03-01T01:57:40;27.02;;;13.65;;
78889;SDS011;68279;48.964;14.502;2023-03-01T02:00:10;27.40;;;13.70;;
78889;SDS011;68279;48.964;14.502;2023-03-01T02:02:40;19.65;;;10.55;;
78889;SDS011;68279;48.964;14.502;2023-03-01T02:07:49;19.75;;;12.52;;
78889;SDS011;68279;48.964;14.502;2023-03-01T02:10:15;22.98;;;11.15;;
78889;SDS011;68279;48.964;14.502;2023-03-01T02:12:42;22.05;;;12.82;;
78889;SDS011;68279;48.964;14.502;2023-03-01T02:15:08;24.85;;;14.25;;
78889;SDS011;68279;48.964;14.502;2023-03-01T02:17:34;21.70;;;10.35;;
78889;SDS011;68279;48.964;14.502;2023-03-01T02:22:44;21.50;;;11.77;;
78889;SDS011;68279;48.964;14.502;2023-03-01T02:27:58;22.80;;;12.07;;
78889;SDS011;68279;48.964;14.502;2023-03-01T02:30:31;15.50;;;10.98;;
78889;SDS011;68279;48.964;14.502;2023-03-01T02:32:58;19.58;;;11.07;;
78889;SDS011;68279;48.964;14.502;2023-03-01T02:35:29;16.58;;;11.57;;
78889;SDS011;68279;48.964;14.502;2023-03-01T02:38:00;25.15;;;12.15;;
78889;SDS011;68279;48.964;14.502;2023-03-01T02:40:27;22.30;;;12.93;;
78889;SDS011;68279;48.964;14.502;2023-03-01T02:42:56;20.98;;;12.05;;
78889;SDS011;68279;48.964;14.502;2023-03-01T02:45:23;23.25;;;11.35;;
78889;SDS011;68279;48.964;14.502;2023-03-01T02:47:49;20.30;;;11.18;;
78889;SDS011;68279;48.964;14.502;2023-03-01T02:52:47;22.05;;;11.48;;
78889;SDS011;68279;48.964;14.502;2023-03-01T02:55:37;18.50;;;8.77;;
78889;SDS011;68279;48.964;14.502;2023-03-01T02:58:03;19.67;;;10.13;;
78889;SDS011;68279;48.964;14.502;2023-03-01T03:00:31;18.15;;;11.30;;
78889;SDS011;68279;48.964;14.502;2023-03-01T03:03:04;14.27;;;9.90;;
78889;SDS011;68279;48.964;14.502;2023-03-01T03:05:31;22.20;;;11.52;;
78889;SDS011;68279;48.964;14.502;2023-03-01T03:07:58;15.82;;;9.40;;
78889;SDS011;68279;48.964;14.502;2023-03-01T03:10:29;16.90;;;10.18;;
78889;SDS011;68279;48.964;14.502;2023-03-01T03:12:57;22.35;;;11.73;;
78889;SDS011;68279;48.964;14.502;2023-03-01T03:15:25;21.63;;;11.40;;
78889;SDS011;68279;48.964;14.502;2023-03-01T03:17:53;17.00;;;10.10;;
78889;SDS011;68279;48.964;14.502;2023-03-01T03:20:20;16.77;;;11.45;;
78889;SDS011;68279;48.964;14.502;2023-03-01T03:22:49;19.40;;;9.95;;
78889;SDS011;68279;48.964;14.502;2023-03-01T03:25:16;21.35;;;9.38;;
78889;SDS011;68279;48.964;14.502;2023-03-01T03:27:43;17.02;;;10.40;;
78889;SDS011;68279;48.964;14.502;2023-03-01T03:30:11;23.05;;;11.93;;
78889;SDS011;68279;48.964;14.502;2023-03-01T03:32:42;20.92;;;11.93;;
78889;SDS011;68279;48.964;14.502;2023-03-01T03:35:17;17.30;;;10.07;;
78889;SDS011;68279;48.964;14.502;2023-03-01T03:37:47;20.92;;;11.30;;
78889;SDS011;68279;48.964;14.502;2023-03-01T03:40:29;22.92;;;12.00;;
78889;SDS011;68279;48.964;14.502;2023-03-01T03:42:56;14.20;;;8.98;;
78889;SDS011;68279;48.964;14.502;2023-03-01T03:45:25;17.10;;;9.93;;
78889;SDS011;68279;48.964;14.502;2023-03-01T03:47:52;22.98;;;11.85;;
78889;SDS011;68279;48.964;14.502;2023-03-01T03:50:17;15.75;;;7.72;;
78889;SDS011;68279;48.964;14.502;2023-03-01T03:52:44;15.70;;;9.63;;
78889;SDS011;68279;48.964;14.502;2023-03-01T03:55:11;19.55;;;9.57;;
78889;SDS011;68279;48.964;14.502;2023-03-01T03:57:37;15.13;;;10.10;;
78889;SDS011;68279;48.964;14.502;2023-03-01T04:00:04;19.23;;;10.73;;
78889;SDS011;68279;48.964;14.502;2023-03-01T04:02:43;14.27;;;8.77;;
78889;SDS011;68279;48.964;14.502;2023-03-01T04:07:36;17.65;;;10.30;;
78889;SDS011;68279;48.964;14.502;2023-03-01T04:10:04;17.85;;;8.30;;
78889;SDS011;68279;48.964;14.502;2023-03-01T04:12:32;20.20;;;10.02;;
78889;SDS011;68279;48.964;14.502;2023-03-01T04:14:59;14.57;;;8.80;;
78889;SDS011;68279;48.964;14.502;2023-03-01T04:17:25;21.38;;;10.32;;
78889;SDS011;68279;48.964;14.502;2023-03-01T04:19:51;13.02;;;7.78;;
78889;SDS011;68279;48.964;14.502;2023-03-01T04:22:17;14.60;;;10.90;;
78889;SDS011;68279;48.964;14.502;2023-03-01T04:24:43;22.02;;;10.93;;
78889;SDS011;68279;48.964;14.502;2023-03-01T04:27:10;17.42;;;12.00;;
78889;SDS011;68279;48.964;14.502;2023-03-01T04:29:36;19.70;;;9.98;;
78889;SDS011;68279;48.964;14.502;2023-03-01T04:32:02;21.55;;;12.18;;
78889;SDS011;68279;48.964;14.502;2023-03-01T04:36:54;13.57;;;5.85;;
78889;SDS011;68279;48.964;14.502;2023-03-01T04:39:20;17.15;;;10.80;;
78889;SDS011;68279;48.964;14.502;2023-03-01T04:41:47;17.65;;;9.77;;
78889;SDS011;68279;48.964;14.502;2023-03-01T04:44:12;18.70;;;11.00;;
78889;SDS011;68279;48.964;14.502;2023-03-01T04:46:38;20.60;;;11.07;;
78889;SDS011;68279;48.964;14.502;2023-03-01T04:49:06;20.60;;;10.38;;
78889;SDS011;68279;48.964;14.502;2023-03-01T04:51:31;16.52;;;7.93;;
78889;SDS011;68279;48.964;14.502;2023-03-01T04:53:58;22.17;;;10.77;;
78889;SDS011;68279;48.964;14.502;2023-03-01T04:56:25;21.48;;;9.32;;
78889;SDS011;68279;48.964;14.502;2023-03-01T04:58:52;17.88;;;10.27;;
78889;SDS011;68279;48.964;14.502;2023-03-01T05:01:19;18.58;;;11.70;;
78889;SDS011;68279;48.964;14.502;2023-03-01T05:03:47;21.90;;;12.90;;
78889;SDS011;68279;48.964;14.502;2023-03-01T05:06:15;19.23;;;11.10;;
78889;SDS011;68279;48.964;14.502;2023-03-01T05:08:42;16.00;;;10.57;;
78889;SDS011;68279;48.964;14.502;2023-03-01T05:11:08;21.73;;;11.50;;
78889;SDS011;68279;48.964;14.502;2023-03-01T05:13:35;21.77;;;11.55;;
78889;SDS011;68279;48.964;14.502;2023-03-01T05:16:02;22.00;;;11.48;;
78889;SDS011;68279;48.964;14.502;2023-03-01T05:18:29;23.20;;;10.73;;
78889;SDS011;68279;48.964;14.502;2023-03-01T05:21:03;18.63;;;9.35;;
78889;SDS011;68279;48.964;14.502;2023-03-01T05:23:31;18.88;;;11.38;;
78889;SDS011;68279;48.964;14.502;2023-03-01T05:26:01;21.52;;;12.18;;
78889;SDS011;68279;48.964;14.502;2023-03-01T05:28:29;23.52;;;12.52;;
78889;SDS011;68279;48.964;14.502;2023-03-01T05:30:55;20.50;;;11.13;;
78889;SDS011;68279;48.964;14.502;2023-03-01T05:33:22;24.90;;;11.68;;
78889;SDS011;68279;48.964;14.502;2023-03-01T05:35:49;20.23;;;10.38;;
78889;SDS011;68279;48.964;14.502;2023-03-01T05:38:16;20.25;;;12.15;;
78889;SDS011;68279;48.964;14.502;2023-03-01T05:40:43;23.02;;;10.55;;
78889;SDS011;68279;48.964;14.502;2023-03-01T05:43:10;24.63;;;13.27;;
78889;SDS011;68279;48.964;14.502;2023-03-01T05:45:36;22.88;;;10.45;;
78889;SDS011;68279;48.964;14.502;2023-03-01T05:48:03;19.83;;;12.18;;
78889;SDS011;68279;48.964;14.502;2023-03-01T05:50:32;22.95;;;11.50;;
78889;SDS011;68279;48.964;14.502;2023-03-01T05:53:01;17.35;;;11.10;;
78889;SDS011;68279;48.964;14.502;2023-03-01T05:55:29;20.15;;;12.68;;
78889;SDS011;68279;48.964;14.502;2023-03-01T05:57:59;21.50;;;12.13;;
78889;SDS011;68279;48.964;14.502;2023-03-01T06:00:26;20.58;;;12.85;;
78889;SDS011;68279;48.964;14.502;2023-03-01T06:02:53;21.45;;;12.48;;
78889;SDS011;68279;48.964;14.502;2023-03-01T06:05:20;28.95;;;14.40;;
78889;SDS011;68279;48.964;14.502;2023-03-01T06:07:46;24.73;;;12.90;;
78889;SDS011;68279;48.964;14.502;2023-03-01T06:10:12;21.73;;;10.18;;
78889;SDS011;68279;48.964;14.502;2023-03-01T06:12:39;21.50;;;11.52;;
78889;SDS011;68279;48.964;14.502;2023-03-01T06:15:06;23.88;;;13.30;;
78889;SDS011;68279;48.964;14.502;2023-03-01T06:17:35;27.73;;;14.02;;
78889;SDS011;68279;48.964;14.502;2023-03-01T06:20:03;32.65;;;19.80;;
78889;SDS011;68279;48.964;14.502;2023-03-01T06:22:30;48.80;;;23.15;;
78889;SDS011;68279;48.964;14.502;2023-03-01T06:24:56;40.05;;;21.65;;
78889;SDS011;68279;48.964;14.502;2023-03-01T06:27:21;35.85;;;21.35;;
78889;SDS011;68279;48.964;14.502;2023-03-01T06:29:49;24.58;;;16.17;;
78889;SDS011;68279;48.964;14.502;2023-03-01T06:32:18;29.20;;;13.98;;
78889;SDS011;68279;48.964;14.502;2023-03-01T06:34:44;25.85;;;14.45;;
78889;SDS011;68279;48.964;14.502;2023-03-01T06:37:09;30.27;;;16.27;;
78889;SDS011;68279;48.964;14.502;2023-03-01T06:39:35;28.70;;;13.93;;
78889;SDS011;68279;48.964;14.502;2023-03-01T06:42:00;28.95;;;13.90;;
78889;SDS011;68279;48.964;14.502;2023-03-01T06:44:26;23.65;;;14.65;;
78889;SDS011;68279;48.964;14.502;2023-03-01T06:46:52;26.13;;;14.68;;
78889;SDS011;68279;48.964;14.502;2023-03-01T06:49:18;23.30;;;12.63;;
78889;SDS011;68279;48.964;14.502;2023-03-01T06:51:44;21.77;;;12.30;;
78889;SDS011;68279;48.964;14.502;2023-03-01T06:54:09;24.58;;;13.98;;
78889;SDS011;68279;48.964;14.502;2023-03-01T06:56:35;27.98;;;16.17;;
78889;SDS011;68279;48.964;14.502;2023-03-01T06:59:01;29.77;;;15.95;;
78889;SDS011;68279;48.964;14.502;2023-03-01T07:01:28;29.65;;;15.98;;
78889;SDS011;68279;48.964;14.502;2023-03-01T07:03:54;27.70;;;17.25;;
78889;SDS011;68279;48.964;14.502;2023-03-01T07:06:21;33.42;;;17.50;;
78889;SDS011;68279;48.964;14.502;2023-03-01T07:08:47;34.28;;;17.23;;
78889;SDS011;68279;48.964;14.502;2023-03-01T07:11:13;30.27;;;16.45;;
78889;SDS011;68279;48.964;14.502;2023-03-01T07:13:38;32.80;;;18.30;;
78889;SDS011;68279;48.964;14.502;2023-03-01T07:16:04;38.63;;;19.80;;
78889;SDS011;68279;48.964;14.502;2023-03-01T07:18:30;29.55;;;17.77;;
78889;SDS011;68279;48.964;14.502;2023-03-01T07:20:56;36.20;;;18.45;;
78889;SDS011;68279;48.964;14.502;2023-03-01T07:23:21;37.78;;;17.63;;
78889;SDS011;68279;48.964;14.502;2023-03-01T07:25:54;34.08;;;17.20;;
78889;SDS011;68279;48.964;14.502;2023-03-01T07:28:20;42.17;;;17.73;;
78889;SDS011;68279;48.964;14.502;2023-03-01T07:30:48;31.13;;;15.13;;
78889;SDS011;68279;48.964;14.502;2023-03-01T07:33:15;27.23;;;16.67;;
78889;SDS011;68279;48.964;14.502;2023-03-01T07:35:40;37.08;;;17.40;;
78889;SDS011;68279;48.964;14.502;2023-03-01T07:38:06;33.13;;;16.42;;
78889;SDS011;68279;48.964;14.502;2023-03-01T07:40:31;28.25;;;16.23;;
78889;SDS011;68279;48.964;14.502;2023-03-01T07:42:57;32.95;;;16.50;;
78889;SDS011;68279;48.964;14.502;2023-03-01T07:45:24;33.58;;;18.73;;
78889;SDS011;68279;48.964;14.502;2023-03-01T07:47:53;30.05;;;17.27;;
78889;SDS011;68279;48.964;14.502;2023-03-01T07:50:19;31.88;;;17.80;;
78889;SDS011;68279;48.964;14.502;2023-03-01T07:52:46;31.40;;;17.20;;
78889;SDS011;68279;48.964;14.502;2023-03-01T07:55:13;34.67;;;17.25;;
78889;SDS011;68279;48.964;14.502;2023-03-01T07:57:39;28.63;;;17.10;;
78889;SDS011;68279;48.964;14.502;2023-03-01T08:00:05;27.88;;;17.50;;
78889;SDS011;68279;48.964;14.502;2023-03-01T08:02:31;34.97;;;17.30;;
78889;SDS011;68279;48.964;14.502;2023-03-01T08:04:57;34.38;;;17.40;;
78889;SDS011;68279;48.964;14.502;2023-03-01T08:07:22;34.30;;;17.52;;
78889;SDS011;68279;48.964;14.502;2023-03-01T08:09:48;33.30;;;17.38;;
78889;SDS011;68279;48.964;14.502;2023-03-01T08:12:14;31.90;;;16.70;;
78889;SDS011;68279;48.964;14.502;2023-03-01T08:14:41;35.22;;;17.98;;
78889;SDS011;68279;48.964;14.502;2023-03-01T08:17:07;31.70;;;15.93;;
78889;SDS011;68279;48.964;14.502;2023-03-01T08:19:32;32.25;;;15.52;;
78889;SDS011;68279;48.964;14.502;2023-03-01T08:22:00;28.40;;;16.17;;
78889;SDS011;68279;48.964;14.502;2023-03-01T08:24:27;38.03;;;16.20;;
78889;SDS011;68279;48.964;14.502;2023-03-01T08:26:53;32.28;;;16.58;;
78889;SDS011;68279;48.964;14.502;2023-03-01T08:29:19;28.83;;;16.70;;
78889;SDS011;68279;48.964;14.502;2023-03-01T08:31:44;32.65;;;13.95;;
78889;SDS011;68279;48.964;14.502;2023-03-01T08:34:12;32.30;;;15.77;;
78889;SDS011;68279;48.964;14.502;2023-03-01T08:36:40;27.17;;;14.68;;
78889;SDS011;68279;48.964;14.502;2023-03-01T08:39:09;28.25;;;13.82;;
78889;SDS011;68279;48.964;14.502;2023-03-01T08:41:39;29.30;;;15.80;;
78889;SDS011;68279;48.964;14.502;2023-03-01T08:44:05;31.95;;;14.25;;
78889;SDS011;68279;48.964;14.502;2023-03-01T08:46:32;31.40;;;14.98;;
78889;SDS011;68279;48.964;14.502;2023-03-01T08:49:03;25.95;;;13.77;;
78889;SDS011;68279;48.964;14.502;2023-03-01T08:51:39;31.13;;;16.08;;
78889;SDS011;68279;48.964;14.502;2023-03-01T08:54:11;30.55;;;14.77;;
78889;SDS011;68279;48.964;14.502;2023-03-01T08:56:41;24.33;;;10.80;;
78889;SDS011;68279;48.964;14.502;2023-03-01T08:59:07;24.35;;;12.35;;
78889;SDS011;68279;48.964;14.502;2023-03-01T09:01:32;24.75;;;12.32;;
78889;SDS011;68279;48.964;14.502;2023-03-01T09:03:58;22.17;;;12.45;;
78889;SDS011;68279;48.964;14.502;2023-03-01T09:06:24;21.27;;;11.02;;
78889;SDS011;68279;48.964;14.502;2023-03-01T09:08:49;23.65;;;12.15;;
78889;SDS011;68279;48.964;14.502;2023-03-01T09:11:16;22.10;;;11.10;;
78889;SDS011;68279;48.964;14.502;2023-03-01T09:13:45;22.67;;;10.57;;
78889;SDS011;68279;48.964;14.502;2023-03-01T09:16:12;21.42;;;10.82;;
78889;SDS011;68279;48.964;14.502;2023-03-01T09:18:38;23.20;;;13.32;;
78889;SDS011;68279;48.964;14.502;2023-03-01T09:21:05;20.73;;;12.75;;
78889;SDS011;68279;48.964;14.502;2023-03-01T09:23:35;21.73;;;12.32;;
78889;SDS011;68279;48.964;14.502;2023-03-01T09:26:12;23.85;;;11.63;;
78889;SDS011;68279;48.964;14.502;2023-03-01T09:28:41;21.33;;;11.85;;
78889;SDS011;68279;48.964;14.502;2023-03-01T09:31:07;20.48;;;12.05;;
78889;SDS011;68279;48.964;14.502;2023-03-01T09:33:33;19.65;;;11.20;;
78889;SDS011;68279;48.964;14.502;2023-03-01T09:36:00;20.45;;;10.00;;
78889;SDS011;68279;48.964;14.502;2023-03-01T09:38:28;19.02;;;11.00;;
78889;SDS011;68279;48.964;14.502;2023-03-01T09:40:53;19.42;;;10.15;;
78889;SDS011;68279;48.964;14.502;2023-03-01T09:46:10;19.58;;;11.75;;
78889;SDS011;68279;48.964;14.502;2023-03-01T09:48:42;19.27;;;10.43;;
78889;SDS011;68279;48.964;14.502;2023-03-01T09:51:16;18.90;;;11.55;;
78889;SDS011;68279;48.964;14.502;2023-03-01T09:53:44;22.70;;;11.05;;
78889;SDS011;68279;48.964;14.502;2023-03-01T09:59:07;18.65;;;9.65;;
78889;SDS011;68279;48.964;14.502;2023-03-01T10:04:27;18.15;;;9.63;;
78889;SDS011;68279;48.964;14.502;2023-03-01T10:09:37;19.38;;;11.13;;
78889;SDS011;68279;48.964;14.502;2023-03-01T10:12:08;19.75;;;10.30;;
78889;SDS011;68279;48.964;14.502;2023-03-01T10:14:40;19.30;;;11.65;;
78889;SDS011;68279;48.964;14.502;2023-03-01T10:17:28;19.15;;;11.48;;
78889;SDS011;68279;48.964;14.502;2023-03-01T10:22:51;17.50;;;8.85;;
78889;SDS011;68279;48.964;14.502;2023-03-01T10:25:23;17.85;;;9.63;;
78889;SDS011;68279;48.964;14.502;2023-03-01T10:28:16;16.58;;;10.18;;
78889;SDS011;68279;48.964;14.502;2023-03-01T10:30:43;19.40;;;10.73;;
78889;SDS011;68279;48.964;14.502;2023-03-01T10:33:21;19.27;;;11.57;;
78889;SDS011;68279;48.964;14.502;2023-03-01T10:35:48;16.45;;;10.00;;
78889;SDS011;68279;48.964;14.502;2023-03-01T10:38:15;18.35;;;11.45;;
78889;SDS011;68279;48.964;14.502;2023-03-01T10:43:27;16.67;;;9.00;;
78889;SDS011;68279;48.964;14.502;2023-03-01T10:51:32;15.57;;;8.90;;
78889;SDS011;68279;48.964;14.502;2023-03-01T10:53:58;16.23;;;9.77;;
78889;SDS011;68279;48.964;14.502;2023-03-01T10:56:23;13.50;;;8.25;;
78889;SDS011;68279;48.964;14.502;2023-03-01T10:58:58;14.23;;;7.70;;
78889;SDS011;68279;48.964;14.502;2023-03-01T11:01:29;16.08;;;9.65;;
78889;SDS011;68279;48.964;14.502;2023-03-01T11:08:54;12.90;;;7.25;;
78889;SDS011;68279;48.964;14.502;2023-03-01T11:14:20;14.40;;;8.95;;
78889;SDS011;68279;48.964;14.502;2023-03-01T11:16:48;11.80;;;7.68;;
78889;SDS011;68279;48.964;14.502;2023-03-01T11:19:23;14.18;;;7.80;;
78889;SDS011;68279;48.964;14.502;2023-03-01T11:24:26;13.45;;;8.15;;
78889;SDS011;68279;48.964;14.502;2023-03-01T11:26:57;13.18;;;7.38;;
78889;SDS011;68279;48.964;14.502;2023-03-01T11:29:29;13.38;;;8.07;;
78889;SDS011;68279;48.964;14.502;2023-03-01T11:32:01;13.35;;;8.63;;
78889;SDS011;68279;48.964;14.502;2023-03-01T11:34:45;14.52;;;8.75;;
78889;SDS011;68279;48.964;14.502;2023-03-01T11:37:20;12.82;;;7.10;;
78889;SDS011;68279;48.964;14.502;2023-03-01T11:45:29;13.77;;;7.43;;
78889;SDS011;68279;48.964;14.502;2023-03-01T11:50:55;10.85;;;7.35;;
78889;SDS011;68279;48.964;14.502;2023-03-01T12:02:01;9.27;;;6.88;;
78889;SDS011;68279;48.964;14.502;2023-03-01T12:18:18;12.60;;;7.85;;
78889;SDS011;68279;48.964;14.502;2023-03-01T12:37:19;13.25;;;7.65;;
78889;SDS011;68279;48.964;14.502;2023-03-01T12:48:39;16.35;;;9.20;;
78889;SDS011;68279;48.964;14.502;2023-03-01T12:51:15;12.55;;;8.13;;
78889;SDS011;68279;48.964;14.502;2023-03-01T12:53:49;13.15;;;7.35;;
78889;SDS011;68279;48.964;14.502;2023-03-01T12:56:25;12.27;;;8.48;;
78889;SDS011;68279;48.964;14.502;2023-03-01T13:07:29;16.17;;;9.35;;
78889;SDS011;68279;48.964;14.502;2023-03-01T13:13:24;12.90;;;9.18;;
78889;SDS011;68279;48.964;14.502;2023-03-01T13:15:38;14.00;;;7.68;;
78889;SDS011;68279;48.964;14.502;2023-03-01T13:31:10;14.93;;;8.63;;
78889;SDS011;68279;48.964;14.502;2023-03-01T13:33:57;13.65;;;8.10;;
78889;SDS011;68279;48.964;14.502;2023-03-01T13:39:39;13.85;;;8.50;;
78889;SDS011;68279;48.964;14.502;2023-03-01T13:41:57;13.57;;;8.55;;
78889;SDS011;68279;48.964;14.502;2023-03-01T13:46:58;12.32;;;9.07;;
78889;SDS011;68279;48.964;14.502;2023-03-01T13:49:29;11.88;;;8.95;;
78889;SDS011;68279;48.964;14.502;2023-03-01T13:52:21;16.33;;;11.50;;
78889;SDS011;68279;48.964;14.502;2023-03-01T13:54:50;24.45;;;22.85;;
78889;SDS011;68279;48.964;14.502;2023-03-01T13:57:19;32.75;;;30.92;;
78889;SDS011;68279;48.964;14.502;2023-03-01T13:59:49;41.22;;;38.92;;
78889;SDS011;68279;48.964;14.502;2023-03-01T14:02:14;89.97;;;86.22;;
78889;SDS011;68279;48.964;14.502;2023-03-01T14:04:40;56.75;;;54.03;;
78889;SDS011;68279;48.964;14.502;2023-03-01T14:07:22;29.58;;;27.58;;
78889;SDS011;68279;48.964;14.502;2023-03-01T14:10:03;40.60;;;38.22;;
78889;SDS011;68279;48.964;14.502;2023-03-01T14:20:52;56.67;;;53.85;;
78889;SDS011;68279;48.964;14.502;2023-03-01T14:23:19;77.30;;;74.03;;
78889;SDS011;68279;48.964;14.502;2023-03-01T14:25:57;70.82;;;67.78;;
78889;SDS011;68279;48.964;14.502;2023-03-01T14:30:50;122.57;;;117.68;;
78889;SDS011;68279;48.964;14.502;2023-03-01T14:33:22;104.88;;;100.68;;
78889;SDS011;68279;48.964;14.502;2023-03-01T14:35:58;52.00;;;49.65;;
78889;SDS011;68279;48.964;14.502;2023-03-01T14:46:33;97.20;;;93.35;;
78889;SDS011;68279;48.964;14.502;2023-03-01T14:49:05;1999.90;;;999.90;;
78889;SDS011;68279;48.964;14.502;2023-03-01T14:51:37;1999.90;;;999.90;;
78889;SDS011;68279;48.964;14.502;2023-03-01T14:54:11;134.88;;;129.85;;
78889;SDS011;68279;48.964;14.502;2023-03-01T14:57:02;173.43;;;167.20;;
78889;SDS011;68279;48.964;14.502;2023-03-01T14:59:28;130.13;;;125.30;;
78889;SDS011;68279;48.964;14.502;2023-03-01T15:01:55;68.97;;;66.03;;
78889;SDS011;68279;48.964;14.502;2023-03-01T15:04:23;53.63;;;51.13;;
78889;SDS011;68279;48.964;14.502;2023-03-01T15:06:51;27.77;;;25.52;;
78889;SDS011;68279;48.964;14.502;2023-03-01T15:09:19;20.05;;;18.33;;
78889;SDS011;68279;48.964;14.502;2023-03-01T15:11:46;21.52;;;19.90;;
78889;SDS011;68279;48.964;14.502;2023-03-01T15:19:56;15.27;;;13.68;;
78889;SDS011;68279;48.964;14.502;2023-03-01T15:22:23;13.27;;;11.82;;
78889;SDS011;68279;48.964;14.502;2023-03-01T15:24:51;18.13;;;16.67;;
78889;SDS011;68279;48.964;14.502;2023-03-01T15:27:22;19.85;;;18.40;;
78889;SDS011;68279;48.964;14.502;2023-03-01T15:29:57;26.92;;;25.02;;
78889;SDS011;68279;48.964;14.502;2023-03-01T15:32:26;29.63;;;27.52;;
78889;SDS011;68279;48.964;14.502;2023-03-01T15:34:57;29.42;;;27.25;;
78889;SDS011;68279;48.964;14.502;2023-03-01T15:42:45;31.67;;;29.48;;
78889;SDS011;68279;48.964;14.502;2023-03-01T15:47:38;27.30;;;25.17;;
78889;SDS011;68279;48.964;14.502;2023-03-01T15:52:44;20.95;;;17.40;;
78889;SDS011;68279;48.964;14.502;2023-03-01T15:55:17;21.33;;;19.48;;
78889;SDS011;68279;48.964;14.502;2023-03-01T15:57:49;20.58;;;18.70;;
78889;SDS011;68279;48.964;14.502;2023-03-01T16:00:26;20.33;;;18.42;;
78889;SDS011;68279;48.964;14.502;2023-03-01T16:02:51;17.23;;;15.45;;
78889;SDS011;68279;48.964;14.502;2023-03-01T16:05:24;17.40;;;15.68;;
78889;SDS011;68279;48.964;14.502;2023-03-01T16:07:55;13.40;;;12.20;;
78889;SDS011;68279;48.964;14.502;2023-03-01T16:10:22;14.55;;;13.05;;
78889;SDS011;68279;48.964;14.502;2023-03-01T16:12:48;14.05;;;11.40;;
78889;SDS011;68279;48.964;14.502;2023-03-01T16:15:18;17.92;;;12.13;;
78889;SDS011;68279;48.964;14.502;2023-03-01T16:17:50;14.20;;;9.48;;
78889;SDS011;68279;48.964;14.502;2023-03-01T16:20:17;17.55;;;9.95;;
78889;SDS011;68279;48.964;14.502;2023-03-01T16:22:43;11.95;;;8.48;;
78889;SDS011;68279;48.964;14.502;2023-03-01T16:25:10;15.07;;;8.63;;
78889;SDS011;68279;48.964;14.502;2023-03-01T16:27:37;17.85;;;8.63;;
78889;SDS011;68279;48.964;14.502;2023-03-01T16:30:04;17.10;;;8.85;;
78889;SDS011;68279;48.964;14.502;2023-03-01T16:32:31;19.83;;;10.30;;
78889;SDS011;68279;48.964;14.502;2023-03-01T16:34:56;32.63;;;15.52;;
78889;SDS011;68279;48.964;14.502;2023-03-01T16:37:22;37.42;;;18.35;;
78889;SDS011;68279;48.964;14.502;2023-03-01T16:39:48;38.97;;;19.95;;
78889;SDS011;68279;48.964;14.502;2023-03-01T16:42:18;35.55;;;15.98;;
78889;SDS011;68279;48.964;14.502;2023-03-01T16:44:45;32.47;;;15.93;;
78889;SDS011;68279;48.964;14.502;2023-03-01T16:47:11;31.45;;;15.43;;
78889;SDS011;68279;48.964;14.502;2023-03-01T16:49:37;41.28;;;19.08;;
78889;SDS011;68279;48.964;14.502;2023-03-01T16:52:02;33.47;;;15.48;;
78889;SDS011;68279;48.964;14.502;2023-03-01T16:54:29;25.80;;;14.48;;
78889;SDS011;68279;48.964;14.502;2023-03-01T16:56:54;26.05;;;12.13;;
78889;SDS011;68279;48.964;14.502;2023-03-01T16:59:20;19.67;;;9.35;;
78889;SDS011;68279;48.964;14.502;2023-03-01T17:01:45;13.63;;;7.18;;
78889;SDS011;68279;48.964;14.502;2023-03-01T17:04:12;18.75;;;8.32;;
78889;SDS011;68279;48.964;14.502;2023-03-01T17:06:38;15.38;;;8.60;;
78889;SDS011;68279;48.964;14.502;2023-03-01T17:09:04;16.10;;;8.95;;
78889;SDS011;68279;48.964;14.502;2023-03-01T17:11:30;14.50;;;7.53;;